CheckWX is a tool to help pilots better visualize weather data.  It is not intended as a substitute for an official pre-flight weather briefing.

06:56:51 UTC

ZBSJ TAF
Shijiazhuang Daguocun International Airport
Shijiazhuang, China
TAF ZBSJ 190102Z 1906/2006 06004MPS 4000 HZ NSC TX33/1907Z TN23/1921Z

Jun-19@
06:00 UTC

Jun-19 @ 06:00 UTC

Jun-20@
06:00 UTC

Jun-20 @ 06:00 UTC

TAF ZBSJ 190102Z 1906/2006 06004MPS 4000 HZ NSC TX33/1907Z TN23/1921Z
Wind
  • 060° at 8 KTS
Conditions
Haze
Cloud Levels
  • No significant clouds